Time;durP1;ratioP1;P1;durP2;ratioP2;P2;SDS_P1;SDS_P2;PMS_P1;PMS_P2;Temp;Humidity;BMP_temperature;BMP_pressure;BME280_temperature;BME280_humidity;BME280_pressure;Samples;Min_cycle;Max_cycle;Signal;HPM_P1;HPM_P2
2021/08/08 00:01:37;;;;;;;;;;;16.60;99.90;;;;;;5094993;28;19915;-70
2021/08/08 00:04:03;;;;;;;;;;;16.60;99.90;;;;;;5094966;28;19909;-70
2021/08/08 00:06:29;;;;;;;;;;;16.50;99.90;;;;;;5094907;28;20012;-70
2021/08/08 00:08:54;;;;;;;;;;;16.40;99.90;;;;;;5110614;28;19936;-70
2021/08/08 00:11:20;;;;;;;;;;;16.40;99.90;;;;;;5094771;28;19912;-70
2021/08/08 00:13:45;;;;;;;;;;;16.40;99.90;;;;;;5094645;28;19915;-70
2021/08/08 00:16:11;;;;;;;;;;;16.50;99.90;;;;;;5095044;28;19915;-70
2021/08/08 00:18:36;;;;;;;;;;;16.40;99.90;;;;;;5094889;28;19912;-70
2021/08/08 00:21:02;;;;;;;;;;;16.40;99.90;;;;;;5110504;28;19908;-70
2021/08/08 00:23:27;;;;;;;;;;;16.40;99.90;;;;;;5094618;28;19912;-70
2021/08/08 00:25:53;;;;;;;;;;;16.40;99.90;;;;;;5110617;28;19914;-70
2021/08/08 00:28:18;;;;;;;;;;;16.50;99.90;;;;;;5094568;28;19908;-70
2021/08/08 00:30:44;;;;;;;;;;;16.50;99.90;;;;;;5094757;28;19959;-70
2021/08/08 00:33:09;;;;;;;;;;;16.60;99.90;;;;;;5094161;28;19915;-70
2021/08/08 00:35:35;;;;;;;;;;;16.60;99.90;;;;;;5094177;28;19912;-70
2021/08/08 00:38:00;;;;;;;;;;;16.60;99.90;;;;;;5110265;28;19948;-70
2021/08/08 00:40:26;;;;;;;;;;;16.70;99.90;;;;;;5094294;28;19989;-70
2021/08/08 00:42:51;;;;;;;;;;;16.70;99.90;;;;;;5109846;28;20350;-70
2021/08/08 00:45:18;;;;;;;;;;;16.80;99.90;;;;;;5109905;28;19961;-70
2021/08/08 00:47:44;;;;;;;;;;;16.70;99.90;;;;;;5109671;28;19958;-70
2021/08/08 00:50:10;;;;;;;;;;;16.90;99.90;;;;;;5092746;28;19916;-70
2021/08/08 00:52:36;;;;;;;;;;;16.90;99.90;;;;;;5093996;28;19923;-70
2021/08/08 00:55:02;;;;;;;;;;;16.90;99.90;;;;;;5094228;28;19912;-70
2021/08/08 00:57:27;;;;;;;;;;;16.90;99.90;;;;;;5094174;28;20308;-70
2021/08/08 00:59:53;;;;;;;;;;;16.90;99.90;;;;;;5094209;28;19971;-70
2021/08/08 01:02:19;;;;;;;;;;;16.80;99.90;;;;;;5109620;28;19916;-70
2021/08/08 01:04:47;;;;;;;;;;;16.60;99.90;;;;;;5093921;28;19908;-70
2021/08/08 01:07:18;;;;;;;;;;;16.50;99.90;;;;;;5093832;28;20009;-70
2021/08/08 01:09:45;;;;;;;;;;;16.40;99.90;;;;;;5093829;28;20354;-70
2021/08/08 01:12:10;;;;;;;;;;;16.40;99.90;;;;;;5093735;28;20000;-70
2021/08/08 01:14:36;;;;;;;;;;;16.40;99.90;;;;;;5110123;28;19908;-70
2021/08/08 01:17:04;;;;;;;;;;;16.40;99.90;;;;;;5109870;28;19912;-70
2021/08/08 01:19:36;;;;;;;;;;;16.40;99.90;;;;;;5094038;28;19914;-70
2021/08/08 01:22:03;;;;;;;;;;;16.50;99.90;;;;;;5093728;28;19912;-70
2021/08/08 01:24:29;;;;;;;;;;;16.50;99.90;;;;;;5093669;28;19908;-70
2021/08/08 01:26:54;;;;;;;;;;;16.50;99.90;;;;;;5109592;28;19908;-70
2021/08/08 01:29:20;;;;;;;;;;;16.50;99.90;;;;;;5093687;28;20426;-70
2021/08/08 01:31:50;;;;;;;;;;;16.50;99.90;;;;;;5093598;28;20295;-70
2021/08/08 01:34:15;;;;;;;;;;;16.60;99.90;;;;;;5094182;28;19934;-70
2021/08/08 01:36:40;;;;;;;;;;;16.50;99.90;;;;;;5094169;28;19908;-70
2021/08/08 01:39:07;;;;;;;;;;;16.60;99.90;;;;;;5094144;28;20002;-70
2021/08/08 01:41:35;;;;;;;;;;;16.60;99.90;;;;;;5109281;28;20254;-70
2021/08/08 01:44:02;;;;;;;;;;;16.50;99.90;;;;;;5093832;28;19908;-70
2021/08/08 01:46:30;;;;;;;;;;;16.60;99.90;;;;;;5109561;28;19908;-70
2021/08/08 01:48:56;;;;;;;;;;;16.50;99.90;;;;;;5093769;28;19915;-70
2021/08/08 01:51:22;;;;;;;;;;;16.60;99.90;;;;;;5108918;28;19920;-70
2021/08/08 01:53:48;;;;;;;;;;;16.60;99.90;;;;;;5093971;28;19915;-70
2021/08/08 01:56:13;;;;;;;;;;;16.60;99.90;;;;;;5094009;28;19915;-70
2021/08/08 01:58:39;;;;;;;;;;;16.50;99.90;;;;;;5110608;28;19934;-70
2021/08/08 02:01:04;;;;;;;;;;;16.50;99.90;;;;;;5097678;28;19912;-70
2021/08/08 02:03:32;;;;;;;;;;;16.50;99.90;;;;;;5097597;28;19908;-70
2021/08/08 02:05:57;;;;;;;;;;;16.50;99.90;;;;;;5097540;28;19908;-70
2021/08/08 02:08:22;;;;;;;;;;;16.40;99.90;;;;;;5097115;28;20403;-70
2021/08/08 02:10:48;;;;;;;;;;;16.40;99.90;;;;;;5097035;28;20272;-70
2021/08/08 02:13:13;;;;;;;;;;;16.40;99.90;;;;;;5097114;28;19908;-70
2021/08/08 02:15:39;;;;;;;;;;;16.30;99.90;;;;;;5097318;28;20436;-70
2021/08/08 02:18:04;;;;;;;;;;;16.40;99.90;;;;;;5112476;28;20285;-70
2021/08/08 02:20:30;;;;;;;;;;;16.40;99.90;;;;;;5112385;28;20273;-70
2021/08/08 02:22:55;;;;;;;;;;;16.40;99.90;;;;;;5096559;28;19935;-70
2021/08/08 02:25:21;;;;;;;;;;;16.40;99.90;;;;;;5096543;28;19969;-70
2021/08/08 02:27:46;;;;;;;;;;;16.40;99.90;;;;;;5096511;28;19916;-70
2021/08/08 02:30:12;;;;;;;;;;;16.40;99.90;;;;;;5096752;28;20358;-70
2021/08/08 02:32:37;;;;;;;;;;;16.40;99.90;;;;;;5096654;28;19912;-70
2021/08/08 02:35:03;;;;;;;;;;;16.50;99.90;;;;;;5096688;28;19908;-70
2021/08/08 02:37:28;;;;;;;;;;;16.50;99.90;;;;;;5096607;28;19908;-70
2021/08/08 02:39:54;;;;;;;;;;;16.50;99.90;;;;;;5096605;28;19909;-70
2021/08/08 02:42:19;;;;;;;;;;;16.50;99.90;;;;;;5096758;28;19908;-70
2021/08/08 02:44:45;;;;;;;;;;;16.50;99.90;;;;;;5096751;28;19912;-70
2021/08/08 02:47:10;;;;;;;;;;;16.50;99.90;;;;;;5096693;28;19962;-70
2021/08/08 02:49:35;;;;;;;;;;;16.60;99.90;;;;;;5096674;28;19955;-70
2021/08/08 02:52:01;;;;;;;;;;;16.60;99.90;;;;;;5095832;28;19924;-70
2021/08/08 02:54:26;;;;;;;;;;;16.60;99.90;;;;;;5095980;28;20007;-70
2021/08/08 02:56:52;;;;;;;;;;;16.60;99.90;;;;;;5096519;28;19955;-70
2021/08/08 02:59:17;;;;;;;;;;;16.60;99.90;;;;;;5095919;28;19915;-69
2021/08/08 03:01:43;;;;;;;;;;;16.60;99.90;;;;;;5095891;28;19908;-69
2021/08/08 03:04:08;;;;;;;;;;;16.50;99.90;;;;;;5096085;28;20388;-69
2021/08/08 03:06:34;;;;;;;;;;;16.50;99.90;;;;;;5096337;28;19951;-68
2021/08/08 03:08:59;;;;;;;;;;;16.50;99.90;;;;;;5096288;28;19951;-68
2021/08/08 03:11:24;;;;;;;;;;;16.60;99.90;;;;;;5094384;28;19912;-69
2021/08/08 03:13:50;;;;;;;;;;;16.50;99.90;;;;;;5111401;28;20348;-68
2021/08/08 03:16:15;;;;;;;;;;;16.40;99.90;;;;;;5095840;28;20364;-68
2021/08/08 03:18:41;;;;;;;;;;;16.50;99.90;;;;;;5095844;28;19912;-69
2021/08/08 03:21:06;;;;;;;;;;;16.50;99.90;;;;;;5095778;28;19952;-69
2021/08/08 03:23:32;;;;;;;;;;;16.50;99.90;;;;;;5111521;28;19908;-68
2021/08/08 03:25:58;;;;;;;;;;;16.50;99.90;;;;;;5095407;28;19908;-69
2021/08/08 03:28:23;;;;;;;;;;;16.60;99.90;;;;;;5095923;28;20333;-68
2021/08/08 03:30:49;;;;;;;;;;;16.60;99.90;;;;;;5111259;28;19919;-69
2021/08/08 03:33:14;;;;;;;;;;;16.60;99.90;;;;;;5095558;28;19915;-69
2021/08/08 03:35:40;;;;;;;;;;;16.60;99.90;;;;;;5095494;28;19931;-69
2021/08/08 03:38:07;;;;;;;;;;;16.60;99.90;;;;;;5095188;28;19951;-68
2021/08/08 03:40:33;;;;;;;;;;;16.60;99.90;;;;;;5095141;28;19915;-69
2021/08/08 03:42:59;;;;;;;;;;;16.60;99.90;;;;;;5095359;28;19908;-69
2021/08/08 03:45:24;;;;;;;;;;;16.70;99.90;;;;;;5110786;28;20006;-69
2021/08/08 03:47:50;;;;;;;;;;;16.70;99.90;;;;;;5095271;28;19908;-69
2021/08/08 03:50:15;;;;;;;;;;;16.70;99.90;;;;;;5094971;28;19919;-69
2021/08/08 03:52:40;;;;;;;;;;;16.70;99.90;;;;;;5094839;28;19938;-69
2021/08/08 03:55:06;;;;;;;;;;;16.70;99.90;;;;;;5094834;28;19916;-68
2021/08/08 03:57:32;;;;;;;;;;;16.80;99.90;;;;;;5111385;28;19915;-69
2021/08/08 03:59:57;;;;;;;;;;;16.80;99.90;;;;;;5095366;28;20350;-68
2021/08/08 04:02:23;;;;;;;;;;;16.80;99.90;;;;;;5110528;28;19935;-69
2021/08/08 04:04:49;;;;;;;;;;;16.80;99.90;;;;;;5094683;28;19912;-68
2021/08/08 04:07:14;;;;;;;;;;;16.80;99.90;;;;;;5095446;28;19956;-69
2021/08/08 04:09:40;;;;;;;;;;;16.80;99.90;;;;;;5094894;28;19912;-68
2021/08/08 04:12:06;;;;;;;;;;;16.80;99.90;;;;;;5094746;28;19916;-68
2021/08/08 04:14:32;;;;;;;;;;;16.80;99.90;;;;;;5110306;28;19908;-68
2021/08/08 04:16:57;;;;;;;;;;;16.80;99.90;;;;;;5094475;28;19908;-69
2021/08/08 04:19:23;;;;;;;;;;;16.80;99.90;;;;;;5094459;28;19934;-69
2021/08/08 04:21:48;;;;;;;;;;;16.80;99.90;;;;;;5093969;28;19908;-69
2021/08/08 04:24:14;;;;;;;;;;;16.80;99.90;;;;;;5094424;28;19908;-69
2021/08/08 04:26:39;;;;;;;;;;;16.80;99.90;;;;;;5094622;28;19931;-70
2021/08/08 04:29:04;;;;;;;;;;;16.80;99.90;;;;;;5094416;28;19961;-69
2021/08/08 04:31:30;;;;;;;;;;;16.80;99.90;;;;;;5094455;28;19912;-69
2021/08/08 04:33:55;;;;;;;;;;;16.80;99.90;;;;;;5094466;28;19970;-70
2021/08/08 04:36:21;;;;;;;;;;;16.80;99.90;;;;;;5094461;28;19908;-70
2021/08/08 04:38:46;;;;;;;;;;;16.80;99.90;;;;;;5094686;28;19908;-70
2021/08/08 04:41:12;;;;;;;;;;;16.80;99.90;;;;;;5109860;28;19958;-70
2021/08/08 04:43:37;;;;;;;;;;;16.90;99.90;;;;;;5094354;28;20456;-70
2021/08/08 04:46:03;;;;;;;;;;;16.80;99.90;;;;;;5094318;28;19915;-70
2021/08/08 04:48:28;;;;;;;;;;;16.90;99.90;;;;;;5094265;28;19908;-70
2021/08/08 04:50:54;;;;;;;;;;;16.80;99.90;;;;;;5109395;28;20289;-70
2021/08/08 04:53:19;;;;;;;;;;;16.80;99.90;;;;;;5094291;28;19912;-70
2021/08/08 04:55:45;;;;;;;;;;;16.70;99.90;;;;;;5109771;28;19912;-70
2021/08/08 04:58:11;;;;;;;;;;;16.70;99.90;;;;;;5093958;28;20334;-70
2021/08/08 05:00:36;;;;;;;;;;;16.70;99.90;;;;;;5093913;28;20316;-69
2021/08/08 05:03:02;;;;;;;;;;;16.70;99.90;;;;;;5093911;28;19916;-69
2021/08/08 05:05:28;;;;;;;;;;;16.70;99.90;;;;;;5094148;28;19908;-69
2021/08/08 05:07:53;;;;;;;;;;;16.70;99.90;;;;;;5094146;28;19919;-69
2021/08/08 05:10:20;;;;;;;;;;;16.70;99.90;;;;;;5094070;28;19909;-68
2021/08/08 05:12:46;;;;;;;;;;;16.70;99.90;;;;;;5093733;28;19971;-69
2021/08/08 05:15:11;;;;;;;;;;;16.60;99.90;;;;;;5093805;28;19908;-69
2021/08/08 05:17:37;;;;;;;;;;;16.60;99.90;;;;;;5109889;28;19915;-69
2021/08/08 05:20:03;;;;;;;;;;;16.60;99.90;;;;;;5094063;28;19908;-69
2021/08/08 05:22:28;;;;;;;;;;;16.60;99.90;;;;;;5093711;28;19908;-69
2021/08/08 05:24:54;;;;;;;;;;;16.60;99.90;;;;;;5093981;28;19915;-69
2021/08/08 05:27:19;;;;;;;;;;;16.60;99.90;;;;;;5093957;28;19908;-69
2021/08/08 05:29:44;;;;;;;;;;;16.70;99.90;;;;;;5093962;28;19915;-69
2021/08/08 05:32:10;;;;;;;;;;;16.70;99.90;;;;;;5093573;28;20414;-69
2021/08/08 05:34:35;;;;;;;;;;;16.70;99.90;;;;;;5096750;28;19912;-69
2021/08/08 05:37:01;;;;;;;;;;;16.70;99.90;;;;;;5097509;28;19974;-69
2021/08/08 05:39:26;;;;;;;;;;;16.70;99.90;;;;;;5097494;28;19908;-70
2021/08/08 05:41:52;;;;;;;;;;;16.60;99.90;;;;;;5097710;28;19908;-70
2021/08/08 05:44:17;;;;;;;;;;;16.70;99.90;;;;;;5097660;28;20268;-69
2021/08/08 05:46:43;;;;;;;;;;;16.70;99.90;;;;;;5097604;28;19908;-70
2021/08/08 05:49:09;;;;;;;;;;;16.70;99.90;;;;;;5113049;28;19908;-70
2021/08/08 05:51:36;;;;;;;;;;;16.70;99.90;;;;;;5097018;28;19924;-69
2021/08/08 05:54:02;;;;;;;;;;;16.80;99.90;;;;;;5097213;28;20419;-70
2021/08/08 05:56:27;;;;;;;;;;;16.80;99.90;;;;;;5097178;28;19908;-70
2021/08/08 05:58:53;;;;;;;;;;;16.70;99.90;;;;;;5097140;28;20350;-70
2021/08/08 06:01:18;;;;;;;;;;;16.80;99.90;;;;;;5097044;28;20353;-69
2021/08/08 06:03:43;;;;;;;;;;;16.70;99.90;;;;;;5097611;28;20376;-69
2021/08/08 06:06:10;;;;;;;;;;;16.70;99.90;;;;;;5096966;28;20373;-70
2021/08/08 06:08:36;;;;;;;;;;;16.80;99.90;;;;;;5097215;28;19915;-70
2021/08/08 06:11:01;;;;;;;;;;;16.80;99.90;;;;;;5097099;28;19912;-70
2021/08/08 06:13:26;;;;;;;;;;;16.80;99.90;;;;;;5097132;28;19908;-69
2021/08/08 06:15:52;;;;;;;;;;;16.70;99.90;;;;;;5097039;28;19912;-70
2021/08/08 06:18:17;;;;;;;;;;;16.80;99.90;;;;;;5097030;28;19958;-70
2021/08/08 06:20:43;;;;;;;;;;;16.80;99.90;;;;;;5112762;28;19912;-70
2021/08/08 06:23:08;;;;;;;;;;;16.90;99.90;;;;;;5096963;28;19915;-70
2021/08/08 06:25:34;;;;;;;;;;;16.90;99.90;;;;;;5096910;28;19958;-70
2021/08/08 06:27:59;;;;;;;;;;;16.90;99.90;;;;;;5096817;28;20006;-70
2021/08/08 06:30:25;;;;;;;;;;;17.00;99.90;;;;;;5096649;28;20278;-70
2021/08/08 06:32:50;;;;;;;;;;;17.00;99.90;;;;;;5096755;28;20315;-70
2021/08/08 06:35:15;;;;;;;;;;;17.40;99.90;;;;;;5112722;28;20033;-70
2021/08/08 06:37:43;;;;;;;;;;;17.70;99.90;;;;;;5096661;28;19908;-70
2021/08/08 06:40:10;;;;;;;;;;;17.60;99.90;;;;;;5112119;28;19915;-70
2021/08/08 06:42:35;;;;;;;;;;;17.30;99.90;;;;;;5096574;28;19915;-70
2021/08/08 06:45:01;;;;;;;;;;;17.20;99.90;;;;;;5094459;28;19908;-69
2021/08/08 06:47:26;;;;;;;;;;;17.40;99.90;;;;;;5096438;28;19908;-69
2021/08/08 06:49:51;;;;;;;;;;;17.40;99.90;;;;;;5094696;28;19914;-69
2021/08/08 06:52:17;;;;;;;;;;;17.40;99.90;;;;;;5096015;28;19913;-68
2021/08/08 06:54:42;;;;;;;;;;;17.40;99.90;;;;;;5096062;28;20011;-68
2021/08/08 06:57:08;;;;;;;;;;;17.30;99.90;;;;;;5096272;28;19966;-69
2021/08/08 06:59:37;;;;;;;;;;;17.10;99.90;;;;;;5096239;28;19916;-69
2021/08/08 07:02:02;;;;;;;;;;;17.10;99.90;;;;;;5096158;28;19912;-69
2021/08/08 07:04:28;;;;;;;;;;;17.10;99.90;;;;;;5096112;28;20277;-69
2021/08/08 07:06:53;;;;;;;;;;;17.20;99.90;;;;;;5096107;28;20011;-68
2021/08/08 07:09:19;;;;;;;;;;;17.10;99.90;;;;;;5096049;28;19915;-69
2021/08/08 07:11:44;;;;;;;;;;;17.20;99.90;;;;;;5095640;28;19912;-69
2021/08/08 07:14:09;;;;;;;;;;;17.40;99.90;;;;;;5095690;28;19908;-69
2021/08/08 07:16:35;;;;;;;;;;;17.50;99.90;;;;;;5095637;28;19919;-69
2021/08/08 07:19:00;;;;;;;;;;;17.60;99.90;;;;;;5095546;28;19914;-69
2021/08/08 07:21:26;;;;;;;;;;;17.50;99.90;;;;;;5095784;28;19998;-69
2021/08/08 07:23:52;;;;;;;;;;;17.40;99.90;;;;;;5095733;28;19914;-69
2021/08/08 07:26:18;;;;;;;;;;;17.50;99.90;;;;;;5111432;28;19908;-69
2021/08/08 07:28:43;;;;;;;;;;;17.40;99.90;;;;;;5095696;28;19919;-69
2021/08/08 07:31:09;;;;;;;;;;;17.20;99.90;;;;;;5111617;28;20364;-69
2021/08/08 07:33:34;;;;;;;;;;;17.10;99.90;;;;;;5094050;28;19912;-69
2021/08/08 07:36:00;;;;;;;;;;;17.10;99.90;;;;;;5111000;28;19915;-69
2021/08/08 07:38:39;;;;;;;;;;;17.10;99.90;;;;;;5111316;28;19919;-69
2021/08/08 07:41:07;;;;;;;;;;;17.10;99.90;;;;;;5095149;28;19916;-69
2021/08/08 07:43:33;;;;;;;;;;;17.00;99.90;;;;;;5095099;28;20369;-69
2021/08/08 07:45:58;;;;;;;;;;;17.00;99.90;;;;;;5095031;28;19958;-69
2021/08/08 07:48:24;;;;;;;;;;;17.00;99.90;;;;;;5095635;28;19908;-69
2021/08/08 07:50:49;;;;;;;;;;;17.00;99.90;;;;;;5094834;28;19956;-69
2021/08/08 07:53:15;;;;;;;;;;;17.10;99.90;;;;;;5094905;28;20003;-69
2021/08/08 07:55:40;;;;;;;;;;;17.10;99.90;;;;;;5094437;28;19908;-69
2021/08/08 07:58:06;;;;;;;;;;;17.20;99.90;;;;;;5110813;28;19912;-69
2021/08/08 08:00:31;;;;;;;;;;;17.40;99.90;;;;;;5094796;28;20315;-69
2021/08/08 08:02:56;;;;;;;;;;;17.40;99.90;;;;;;5094685;28;20380;-69
2021/08/08 08:05:22;;;;;;;;;;;17.40;99.90;;;;;;5094669;28;20332;-69
2021/08/08 08:07:47;;;;;;;;;;;17.40;99.90;;;;;;5094647;28;19908;-69
2021/08/08 08:10:13;;;;;;;;;;;17.50;99.90;;;;;;5094600;28;19915;-69
2021/08/08 08:12:38;;;;;;;;;;;17.50;99.90;;;;;;5094528;28;19919;-69
2021/08/08 08:15:04;;;;;;;;;;;17.60;99.90;;;;;;5110379;28;20288;-69
2021/08/08 08:17:30;;;;;;;;;;;17.50;99.90;;;;;;5094491;28;20362;-69
2021/08/08 08:19:55;;;;;;;;;;;17.50;99.90;;;;;;5094440;28;20305;-69
2021/08/08 08:22:20;;;;;;;;;;;17.50;99.90;;;;;;5094389;28;20324;-69
2021/08/08 08:24:46;;;;;;;;;;;17.50;99.90;;;;;;5094333;28;20415;-69
2021/08/08 08:27:12;;;;;;;;;;;17.70;99.90;;;;;;5094318;28;20365;-69
2021/08/08 08:29:38;;;;;;;;;;;17.80;99.90;;;;;;5094307;28;19908;-69
2021/08/08 08:32:04;;;;;;;;;;;17.90;99.90;;;;;;5094179;28;20423;-69
2021/08/08 08:34:29;;;;;;;;;;;18.20;99.90;;;;;;5110298;28;20002;-69
2021/08/08 08:36:55;;;;;;;;;;;18.40;99.90;;;;;;5094459;28;20281;-68
2021/08/08 08:39:20;;;;;;;;;;;18.40;99.90;;;;;;5094470;28;19958;-69
2021/08/08 08:41:46;;;;;;;;;;;18.30;99.90;;;;;;5094400;28;19920;-69
2021/08/08 08:44:12;;;;;;;;;;;18.40;99.90;;;;;;5094384;28;19971;-69
2021/08/08 08:46:40;;;;;;;;;;;18.60;99.90;;;;;;5094624;28;20422;-69
2021/08/08 08:49:08;;;;;;;;;;;18.70;99.90;;;;;;5094610;28;19912;-69
2021/08/08 08:51:37;;;;;;;;;;;18.50;99.90;;;;;;5093962;28;20292;-69
2021/08/08 08:54:02;;;;;;;;;;;18.40;99.90;;;;;;5094212;28;19920;-69
2021/08/08 08:56:29;;;;;;;;;;;18.60;99.90;;;;;;5094254;28;19908;-69
2021/08/08 08:58:55;;;;;;;;;;;18.50;99.90;;;;;;5093924;28;19983;-69
2021/08/08 09:01:20;;;;;;;;;;;18.60;99.90;;;;;;5093933;28;19940;-69
2021/08/08 09:03:46;;;;;;;;;;;19.00;99.90;;;;;;5093897;28;19912;-69
2021/08/08 09:06:11;;;;;;;;;;;19.00;99.90;;;;;;5093866;28;19908;-69
2021/08/08 09:08:37;;;;;;;;;;;19.00;99.90;;;;;;5097822;28;19923;-69
2021/08/08 09:11:04;;;;;;;;;;;19.60;99.90;;;;;;5113740;28;19919;-69
2021/08/08 09:13:30;;;;;;;;;;;20.20;99.90;;;;;;5097996;28;19908;-69
2021/08/08 09:15:55;;;;;;;;;;;20.30;99.90;;;;;;5097944;28;19927;-69
2021/08/08 09:18:21;;;;;;;;;;;20.30;99.90;;;;;;5098143;28;19931;-69
2021/08/08 09:20:48;;;;;;;;;;;20.40;99.90;;;;;;5098166;28;20369;-69
2021/08/08 09:23:14;;;;;;;;;;;20.90;99.90;;;;;;5098083;28;19948;-69
2021/08/08 09:25:47;;;;;;;;;;;21.30;99.90;;;;;;5097706;28;19974;-69
2021/08/08 09:28:13;;;;;;;;;;;20.10;99.90;;;;;;5097884;28;19915;-69
2021/08/08 09:30:40;;;;;;;;;;;21.00;99.90;;;;;;5113735;28;20312;-69
2021/08/08 09:33:06;;;;;;;;;;;20.90;99.90;;;;;;5097916;28;19931;-69
2021/08/08 09:35:33;;;;;;;;;;;20.80;99.90;;;;;;5097577;28;19912;-69
2021/08/08 09:38:00;;;;;;;;;;;20.40;99.90;;;;;;5097504;28;19908;-69
2021/08/08 09:40:25;;;;;;;;;;;20.30;99.90;;;;;;5097789;28;19908;-69
2021/08/08 09:42:52;;;;;;;;;;;20.70;99.90;;;;;;5097388;28;19957;-69
2021/08/08 09:45:18;;;;;;;;;;;21.50;99.90;;;;;;5097364;28;19909;-69
2021/08/08 09:47:45;;;;;;;;;;;22.60;99.90;;;;;;5097197;28;19988;-69
2021/08/08 09:50:12;;;;;;;;;;;22.50;99.90;;;;;;5097059;28;19965;-69
2021/08/08 09:52:38;;;;;;;;;;;22.20;99.90;;;;;;5079305;28;20292;-69
2021/08/08 09:55:15;;;;;;;;;;;22.30;99.90;;;;;;5097455;28;19931;-70
2021/08/08 09:57:41;;;;;;;;;;;22.20;99.90;;;;;;5113136;28;19931;-69
2021/08/08 10:00:07;;;;;;;;;;;21.40;99.90;;;;;;5097373;28;20361;-69
2021/08/08 10:02:33;;;;;;;;;;;21.20;99.90;;;;;;5097329;28;19996;-68
2021/08/08 10:04:58;;;;;;;;;;;21.80;99.90;;;;;;5112855;28;20350;-69
2021/08/08 10:07:24;;;;;;;;;;;21.20;99.90;;;;;;5096989;28;20426;-69
2021/08/08 10:09:50;;;;;;;;;;;20.90;99.90;;;;;;5096874;28;19908;-70
2021/08/08 10:15:01;;;;;;;;;;;21.20;99.90;;;;;;5092408;28;19913;-71
2021/08/08 10:17:27;;;;;;;;;;;21.50;99.90;;;;;;5091393;28;20007;-70
2021/08/08 10:19:53;;;;;;;;;;;21.60;99.90;;;;;;5091322;28;19908;-70
2021/08/08 10:22:23;;;;;;;;;;;21.20;99.90;;;;;;5092216;28;20296;-70
2021/08/08 10:24:49;;;;;;;;;;;20.90;99.90;;;;;;5090893;28;19915;-69
2021/08/08 10:27:21;;;;;;;;;;;20.70;99.90;;;;;;5091801;28;19909;-69
2021/08/08 10:29:47;;;;;;;;;;;20.80;99.90;;;;;;5091766;28;19915;-70
2021/08/08 10:32:13;;;;;;;;;;;20.80;99.90;;;;;;5091679;28;19969;-69
2021/08/08 10:34:38;;;;;;;;;;;20.70;99.90;;;;;;5091294;28;20342;-69
2021/08/08 10:37:11;;;;;;;;;;;21.40;99.90;;;;;;5089920;28;19958;-69
2021/08/08 10:39:38;;;;;;;;;;;21.70;99.90;;;;;;5091010;28;19916;-69
2021/08/08 10:42:04;;;;;;;;;;;21.70;99.90;;;;;;5124153;28;19913;-69
2021/08/08 10:44:29;;;;;;;;;;;20.90;99.90;;;;;;5091118;28;19908;-69
2021/08/08 10:46:55;;;;;;;;;;;20.40;99.90;;;;;;5091432;28;20298;-68
2021/08/08 10:49:35;;;;;;;;;;;20.80;99.90;;;;;;5090854;28;20281;-69
2021/08/08 10:52:02;;;;;;;;;;;21.20;99.90;;;;;;5090774;28;20258;-69
2021/08/08 10:54:38;;;;;;;;;;;21.40;99.90;;;;;;5090927;28;19919;-69
2021/08/08 10:57:09;;;;;;;;;;;21.00;99.90;;;;;;5090980;28;20364;-69
2021/08/08 10:59:41;;;;;;;;;;;20.90;99.90;;;;;;5090966;28;19909;-69
2021/08/08 11:02:07;;;;;;;;;;;21.00;99.90;;;;;;5090837;28;20310;-69
2021/08/08 11:04:33;;;;;;;;;;;20.80;99.90;;;;;;5090800;28;19947;-69
2021/08/08 11:06:59;;;;;;;;;;;20.90;99.90;;;;;;5090120;28;19948;-69
2021/08/08 11:09:25;;;;;;;;;;;20.80;99.90;;;;;;5091051;28;19909;-69
2021/08/08 11:11:54;;;;;;;;;;;20.80;99.90;;;;;;5090704;28;19909;-69
2021/08/08 11:14:20;;;;;;;;;;;20.70;99.90;;;;;;5105216;28;19959;-69
2021/08/08 11:16:46;;;;;;;;;;;20.60;99.90;;;;;;5111203;28;20353;-69
2021/08/08 11:19:12;;;;;;;;;;;20.60;99.90;;;;;;5111182;28;20068;-69
2021/08/08 11:21:38;;;;;;;;;;;20.60;99.90;;;;;;5111147;28;20003;-69
2021/08/08 11:24:05;;;;;;;;;;;20.90;99.90;;;;;;5111129;28;19929;-69
2021/08/08 11:26:31;;;;;;;;;;;21.30;99.90;;;;;;5096588;28;19908;-69
2021/08/08 11:28:59;;;;;;;;;;;21.30;99.90;;;;;;5079142;28;19915;-69
2021/08/08 11:31:26;;;;;;;;;;;21.10;99.90;;;;;;5097433;28;20458;-69
2021/08/08 11:33:54;;;;;;;;;;;21.00;99.90;;;;;;5097359;28;19916;-69
2021/08/08 11:36:36;;;;;;;;;;;20.90;99.90;;;;;;5097364;28;19909;-69
2021/08/08 11:39:04;;;;;;;;;;;20.90;99.90;;;;;;5097041;28;19942;-69
2021/08/08 11:41:30;;;;;;;;;;;21.20;99.90;;;;;;5096667;28;19947;-69
2021/08/08 11:44:12;;;;;;;;;;;21.40;99.90;;;;;;5096620;28;19951;-69
2021/08/08 11:46:39;;;;;;;;;;;21.40;99.90;;;;;;5097223;28;19908;-69
2021/08/08 11:49:12;;;;;;;;;;;21.20;99.90;;;;;;5078762;28;19915;-69
2021/08/08 11:51:39;;;;;;;;;;;21.40;99.90;;;;;;5096779;28;19908;-69
2021/08/08 11:54:06;;;;;;;;;;;21.70;99.90;;;;;;5096375;28;20247;-70
2021/08/08 11:56:32;;;;;;;;;;;22.00;99.90;;;;;;5096578;28;19916;-69
2021/08/08 11:58:57;;;;;;;;;;;21.50;99.90;;;;;;5096569;28;20012;-69
2021/08/08 12:01:24;;;;;;;;;;;21.20;99.90;;;;;;5096542;28;19908;-69
2021/08/08 12:03:50;;;;;;;;;;;21.50;99.90;;;;;;5096471;28;19912;-69
2021/08/08 12:06:18;;;;;;;;;;;21.30;99.90;;;;;;5096395;28;19908;-69
2021/08/08 12:08:43;;;;;;;;;;;21.40;99.90;;;;;;5077900;28;19916;-69
2021/08/08 12:11:09;;;;;;;;;;;21.50;99.90;;;;;;5096050;28;19908;-69
2021/08/08 12:13:34;;;;;;;;;;;21.30;99.90;;;;;;5095760;28;19920;-69
2021/08/08 12:16:10;;;;;;;;;;;21.30;99.90;;;;;;5095963;28;20040;-69
2021/08/08 12:18:35;;;;;;;;;;;21.50;99.90;;;;;;5095854;28;19909;-69
2021/08/08 12:21:00;;;;;;;;;;;21.10;99.90;;;;;;5095844;28;19915;-69
2021/08/08 12:23:26;;;;;;;;;;;20.70;99.90;;;;;;5078253;28;19962;-69
2021/08/08 12:26:06;;;;;;;;;;;20.50;99.90;;;;;;5095678;28;19913;-69
2021/08/08 12:28:32;;;;;;;;;;;20.50;99.90;;;;;;5095706;28;19947;-69
2021/08/08 12:31:06;;;;;;;;;;;21.10;99.90;;;;;;5095928;28;20380;-69
2021/08/08 12:33:31;;;;;;;;;;;21.40;99.90;;;;;;5077351;28;19912;-69
2021/08/08 12:36:07;;;;;;;;;;;21.30;99.90;;;;;;5095196;28;19973;-69
2021/08/08 12:38:47;;;;;;;;;;;21.10;99.90;;;;;;5095037;28;19914;-69
2021/08/08 12:41:12;;;;;;;;;;;20.90;99.90;;;;;;5095449;28;20351;-69
2021/08/08 12:43:38;;;;;;;;;;;20.80;99.90;;;;;;5078123;28;19908;-69
2021/08/08 12:46:08;;;;;;;;;;;20.90;99.90;;;;;;5095650;28;19915;-69
2021/08/08 12:48:34;;;;;;;;;;;20.70;99.90;;;;;;5077581;28;19912;-69
2021/08/08 12:50:59;;;;;;;;;;;20.70;99.90;;;;;;5095276;28;19960;-69
2021/08/08 12:53:25;;;;;;;;;;;20.60;99.90;;;;;;5077376;28;19920;-69
2021/08/08 12:55:55;;;;;;;;;;;20.80;99.90;;;;;;5095463;28;19912;-69
2021/08/08 12:58:20;;;;;;;;;;;21.10;99.90;;;;;;5095448;28;19997;-69
2021/08/08 13:00:46;;;;;;;;;;;21.00;99.90;;;;;;5095387;28;20308;-69
2021/08/08 13:03:11;;;;;;;;;;;20.60;99.90;;;;;;5095331;28;19912;-69
2021/08/08 13:05:37;;;;;;;;;;;20.70;99.90;;;;;;5095312;28;19954;-69
2021/08/08 13:08:02;;;;;;;;;;;21.00;99.90;;;;;;5077200;28;20337;-69
2021/08/08 13:10:28;;;;;;;;;;;21.10;99.90;;;;;;5095178;28;19915;-69
2021/08/08 13:12:53;;;;;;;;;;;21.10;99.90;;;;;;5094807;28;19973;-69
2021/08/08 13:15:19;;;;;;;;;;;21.10;99.90;;;;;;5094837;28;19908;-69
2021/08/08 13:17:45;;;;;;;;;;;21.20;99.90;;;;;;5094735;28;20350;-69
2021/08/08 13:20:12;;;;;;;;;;;20.90;99.90;;;;;;5094784;28;19973;-69
2021/08/08 13:22:38;;;;;;;;;;;20.90;99.90;;;;;;5077355;28;19908;-69
2021/08/08 13:25:04;;;;;;;;;;;21.10;99.90;;;;;;5094906;28;19946;-69
2021/08/08 13:27:30;;;;;;;;;;;21.20;99.90;;;;;;5094897;28;19977;-69
2021/08/08 13:29:55;;;;;;;;;;;21.50;99.90;;;;;;5095138;28;20356;-70
2021/08/08 13:32:20;;;;;;;;;;;21.90;99.90;;;;;;5095119;28;20359;-70
2021/08/08 13:34:46;;;;;;;;;;;21.90;99.90;;;;;;5094703;28;20324;-69
2021/08/08 13:37:13;;;;;;;;;;;21.80;99.90;;;;;;5094744;28;19998;-69
2021/08/08 13:39:39;;;;;;;;;;;21.90;99.90;;;;;;5094464;28;19909;-69
2021/08/08 13:42:05;;;;;;;;;;;22.10;99.90;;;;;;5094900;28;19908;-69
2021/08/08 13:44:30;;;;;;;;;;;21.80;99.90;;;;;;5094894;28;19908;-69
2021/08/08 13:46:56;;;;;;;;;;;21.70;99.90;;;;;;5094276;28;20269;-69
2021/08/08 13:49:22;;;;;;;;;;;21.60;99.90;;;;;;5094033;28;19908;-69
2021/08/08 13:51:49;;;;;;;;;;;21.70;99.90;;;;;;5076641;28;19908;-69
2021/08/08 13:54:15;;;;;;;;;;;22.30;99.90;;;;;;5094410;28;19951;-69
2021/08/08 13:56:41;;;;;;;;;;;22.20;99.90;;;;;;5075987;28;19908;-69
2021/08/08 13:59:06;;;;;;;;;;;22.00;99.90;;;;;;5076305;28;19908;-69
2021/08/08 14:01:32;;;;;;;;;;;21.60;99.90;;;;;;5094408;28;19912;-69
2021/08/08 14:03:57;;;;;;;;;;;21.70;99.90;;;;;;5075967;28;19947;-69
2021/08/08 14:06:25;;;;;;;;;;;21.90;99.90;;;;;;5059037;28;19915;-69
2021/08/08 14:08:51;;;;;;;;;;;21.90;99.90;;;;;;5094231;28;20447;-69
2021/08/08 14:11:16;;;;;;;;;;;22.10;99.90;;;;;;5075908;28;19951;-69
2021/08/08 14:13:42;;;;;;;;;;;22.40;99.90;;;;;;5093685;28;19977;-69